createdAt,value
2019-01-18T00:02:18.501Z,101149.00
2019-01-18T00:04:56.486Z,101148.81
2019-01-18T00:07:26.837Z,101152.55
2019-01-18T00:09:57.485Z,101150.96
2019-01-18T00:12:31.039Z,101153.75
2019-01-18T00:17:41.770Z,101160.84
2019-01-18T00:20:12.192Z,101162.31
2019-01-18T00:22:46.198Z,101165.34
2019-01-18T00:25:17.253Z,101159.14
2019-01-18T00:27:47.563Z,101165.44
2019-01-18T00:30:24.407Z,101165.91
2019-01-18T00:32:51.645Z,101171.86
2019-01-18T00:35:22.218Z,101182.25
2019-01-18T00:37:53.905Z,101182.25
2019-01-18T00:40:24.919Z,101195.60
2019-01-18T00:42:55.236Z,101201.27
2019-01-18T00:45:32.216Z,101207.20
2019-01-18T00:47:57.559Z,101207.20
2019-01-18T00:50:30.482Z,101212.11
2019-01-18T00:53:00.763Z,101207.70
2019-01-18T00:55:31.396Z,101217.25
2019-01-18T00:58:02.085Z,101218.53
2019-01-18T01:00:33.034Z,101219.16
2019-01-18T01:03:04.951Z,101220.53
2019-01-18T01:05:38.667Z,101228.08
2019-01-18T01:08:08.946Z,101231.13
2019-01-18T01:10:39.674Z,101237.64
2019-01-18T01:13:10.075Z,101236.64
2019-01-18T01:15:41.445Z,101242.29
2019-01-18T01:18:14.945Z,101246.19
2019-01-18T01:20:46.692Z,101248.35
2019-01-18T01:23:17.146Z,101251.61
2019-01-18T01:25:51.706Z,101253.24
2019-01-18T01:28:23.268Z,101259.05
2019-01-18T01:30:54.981Z,101267.59
2019-01-18T01:33:25.334Z,101272.88
2019-01-18T01:35:57.296Z,101285.59
2019-01-18T01:38:27.750Z,101281.70
2019-01-18T01:40:59.363Z,101289.11
2019-01-18T01:43:29.722Z,101294.77
2019-01-18T01:46:00.034Z,101296.28
2019-01-18T01:48:30.336Z,101307.86
2019-01-18T01:51:00.665Z,101303.83
2019-01-18T01:53:32.897Z,101315.66
2019-01-18T01:56:03.265Z,101319.55
2019-01-18T01:58:33.867Z,101324.21
2019-01-18T02:01:04.519Z,101333.28
2019-01-18T02:03:37.034Z,101339.28
2019-01-18T02:06:07.394Z,101341.94
2019-01-18T02:08:38.041Z,101343.45
2019-01-18T02:11:09.956Z,101345.56
2019-01-18T02:13:41.931Z,101350.59
2019-01-18T02:16:12.398Z,101355.37
2019-01-18T02:18:50.933Z,101356.25
2019-01-18T02:21:21.280Z,101361.43
2019-01-18T02:23:51.845Z,101368.97
2019-01-18T02:26:24.484Z,101373.23
2019-01-18T02:28:56.312Z,101382.29
2019-01-18T02:31:26.667Z,101390.45
2019-01-18T02:33:56.987Z,101389.46
2019-01-18T02:36:27.387Z,101387.80
2019-01-18T02:38:59.177Z,101391.81
2019-01-18T02:41:29.536Z,101393.53
2019-01-18T02:44:01.009Z,101395.05
2019-01-18T02:46:31.362Z,101407.84
2019-01-18T02:49:03.022Z,101403.49
2019-01-18T02:51:33.347Z,101401.62
2019-01-18T02:54:04.421Z,101417.59
2019-01-18T02:56:34.831Z,101416.80
2019-01-18T02:59:07.805Z,101419.67
2019-01-18T03:01:39.351Z,101421.67
2019-01-18T03:04:14.821Z,101419.47
2019-01-18T03:06:45.404Z,101427.13
2019-01-18T03:09:15.812Z,101433.75
2019-01-18T03:11:46.210Z,101432.44
2019-01-18T03:14:16.636Z,101440.67
2019-01-18T03:16:47.319Z,101441.30
2019-01-18T03:19:17.601Z,101441.30
2019-01-18T03:21:47.917Z,101435.23
2019-01-18T03:24:20.886Z,101441.77
2019-01-18T03:26:51.547Z,101448.73
2019-01-18T03:29:21.867Z,101456.33
2019-01-18T03:31:55.347Z,101460.60
2019-01-18T03:34:26.803Z,101459.81
2019-01-18T03:36:57.158Z,101470.34
2019-01-18T03:39:27.542Z,101474.12
2019-01-18T03:41:58.365Z,101484.47
2019-01-18T03:44:28.812Z,101489.39
2019-01-18T03:47:05.984Z,101494.36
2019-01-18T03:49:36.567Z,101497.91
2019-01-18T03:52:07.177Z,101504.13
2019-01-18T03:54:37.749Z,101502.78
2019-01-18T03:57:10.272Z,101506.48
2019-01-18T03:59:40.548Z,101503.78
2019-01-18T04:02:16.419Z,101508.41
2019-01-18T04:04:46.807Z,101511.98
2019-01-18T04:07:19.325Z,101523.97
2019-01-18T04:09:52.080Z,101521.18
2019-01-18T04:12:22.372Z,101527.33
2019-01-18T04:14:53.244Z,101524.58
2019-01-18T04:17:27.449Z,101533.36
2019-01-18T04:19:57.850Z,101537.05
2019-01-18T04:22:30.092Z,101533.45
2019-01-18T04:25:14.502Z,101542.23
2019-01-18T04:27:47.654Z,101547.16
2019-01-18T04:30:21.258Z,101544.28
2019-01-18T04:32:51.729Z,101543.73
2019-01-18T04:35:25.731Z,101556.28
2019-01-18T04:37:56.333Z,101552.39
2019-01-18T04:40:27.625Z,101552.63
2019-01-18T04:43:00.693Z,101556.89
2019-01-18T04:45:31.026Z,101549.87
2019-01-18T04:48:01.643Z,101550.66
2019-01-18T04:50:38.673Z,101544.41
2019-01-18T04:53:08.957Z,101551.72
2019-01-18T04:55:39.279Z,101548.91
2019-01-18T04:58:26.580Z,101545.83
2019-01-18T05:00:44.316Z,101551.33
2019-01-18T05:03:15.026Z,101553.66
2019-01-18T05:05:51.878Z,101563.72
2019-01-18T05:08:21.051Z,101571.14
2019-01-18T05:10:51.352Z,101574.54
2019-01-18T05:13:29.244Z,101569.94
2019-01-18T05:16:00.621Z,101570.41
2019-01-18T05:18:32.882Z,101577.78
2019-01-18T05:21:03.298Z,101586.93
2019-01-18T05:23:36.137Z,101582.88
2019-01-18T05:26:06.821Z,101589.28
2019-01-18T05:28:37.578Z,101597.44
2019-01-18T05:31:07.845Z,101597.62
2019-01-18T05:33:38.419Z,101598.75
2019-01-18T05:36:08.792Z,101603.95
2019-01-18T05:38:39.250Z,101605.67
2019-01-18T05:41:16.240Z,101610.66
2019-01-18T05:43:52.071Z,101607.45
2019-01-18T05:46:22.383Z,101612.63
2019-01-18T05:48:54.888Z,101611.55
2019-01-18T05:51:25.240Z,101612.16
2019-01-18T05:53:55.783Z,101618.43
2019-01-18T05:56:26.364Z,101629.51
2019-01-18T05:58:58.313Z,101637.95
2019-01-18T06:01:28.856Z,101639.45
2019-01-18T06:04:03.265Z,101640.05
2019-01-18T06:06:33.989Z,101647.64
2019-01-18T06:09:06.788Z,101660.77
2019-01-18T06:11:37.130Z,101664.16
2019-01-18T06:14:08.484Z,101660.84
2019-01-18T06:16:43.523Z,101663.41
2019-01-18T06:19:15.688Z,101668.05
2019-01-18T06:21:46.405Z,101674.85
2019-01-18T06:24:20.878Z,101675.94
2019-01-18T06:26:51.557Z,101673.95
2019-01-18T06:29:22.488Z,101679.92
2019-01-18T06:31:55.432Z,101679.92
2019-01-18T06:34:27.106Z,101688.56
2019-01-18T06:36:57.705Z,101684.00
2019-01-18T06:39:36.608Z,101687.59
2019-01-18T06:42:06.946Z,101686.92
2019-01-18T06:44:37.258Z,101682.66
2019-01-18T06:47:13.360Z,101688.16
2019-01-18T06:49:44.025Z,101690.38
2019-01-18T06:52:14.335Z,101698.58
2019-01-18T06:54:51.278Z,101705.15
2019-01-18T06:57:21.955Z,101712.41
2019-01-18T06:59:52.559Z,101714.69
2019-01-18T07:02:22.991Z,101722.45
2019-01-18T07:04:54.857Z,101727.95
2019-01-18T07:07:25.317Z,101728.31
2019-01-18T07:09:59.426Z,101726.63
2019-01-18T07:12:30.049Z,101737.09
2019-01-18T07:15:01.145Z,101739.90
2019-01-18T07:17:37.276Z,101741.45
2019-01-18T07:20:11.571Z,101739.17
2019-01-18T07:22:42.102Z,101738.52
2019-01-18T07:25:16.650Z,101741.44
2019-01-18T07:27:46.956Z,101741.30
2019-01-18T07:30:22.970Z,101742.62
2019-01-18T07:32:58.027Z,101746.63
2019-01-18T07:35:28.478Z,101741.16
2019-01-18T07:37:59.045Z,101741.24
2019-01-18T07:40:37.559Z,101744.89
2019-01-18T07:43:08.039Z,101746.15
2019-01-18T07:45:38.614Z,101745.81
2019-01-18T07:48:08.974Z,101749.05
2019-01-18T07:50:39.582Z,101749.14
2019-01-18T07:53:11.626Z,101745.87
2019-01-18T07:55:42.321Z,101755.90
2019-01-18T07:58:12.708Z,101754.34
2019-01-18T08:00:43.281Z,101759.31
2019-01-18T08:03:13.601Z,101766.61
2019-01-18T08:05:44.105Z,101770.30
2019-01-18T08:08:14.403Z,101775.69
2019-01-18T08:10:45.370Z,101774.52
2019-01-18T08:13:18.480Z,101779.48
2019-01-18T08:15:48.804Z,101777.86
2019-01-18T08:18:19.246Z,101781.19
2019-01-18T08:20:55.834Z,101784.50
2019-01-18T08:23:26.634Z,101790.33
2019-01-18T08:25:57.774Z,101793.45
2019-01-18T08:28:31.660Z,101793.45
2019-01-18T08:31:03.211Z,101794.27
2019-01-18T08:33:33.512Z,101798.38
2019-01-18T08:36:09.107Z,101795.17
2019-01-18T08:38:39.443Z,101797.21
2019-01-18T08:41:12.475Z,101796.84
2019-01-18T08:43:42.771Z,101798.48
2019-01-18T08:46:15.670Z,101800.38
2019-01-18T08:48:46.099Z,101808.94
2019-01-18T08:51:18.682Z,101803.43
2019-01-18T08:53:49.304Z,101806.02
2019-01-18T08:56:20.644Z,101810.36
2019-01-18T08:58:51.365Z,101807.84
2019-01-18T09:01:22.068Z,101807.84
2019-01-18T09:03:54.198Z,101817.84
2019-01-18T09:06:24.792Z,101802.00
2019-01-18T09:08:55.189Z,101800.73
2019-01-18T09:11:27.259Z,101803.78
2019-01-18T09:13:59.871Z,101814.09
2019-01-18T09:16:30.055Z,101814.59
2019-01-18T09:19:01.689Z,101821.48
2019-01-18T09:21:32.028Z,101821.78
2019-01-18T09:24:03.278Z,101820.19
2019-01-18T09:26:39.665Z,101820.27
2019-01-18T09:29:10.336Z,101829.31
2019-01-18T09:31:42.648Z,101834.38
2019-01-18T09:34:19.900Z,101835.06
2019-01-18T09:36:50.278Z,101835.06
2019-01-18T09:39:21.100Z,101839.98
2019-01-18T09:41:51.471Z,101839.78
2019-01-18T09:44:22.008Z,101831.57
2019-01-18T09:46:52.308Z,101831.57
2019-01-18T09:49:27.541Z,101839.20
2019-01-18T09:51:59.417Z,101844.42
2019-01-18T09:54:29.904Z,101844.42
2019-01-18T09:57:13.864Z,101853.52
2019-01-18T09:59:36.923Z,101861.88
2019-01-18T10:02:07.356Z,101874.55
2019-01-18T10:04:38.777Z,101876.28
2019-01-18T10:07:09.083Z,101875.67
2019-01-18T10:09:40.521Z,101871.77
2019-01-18T10:12:10.842Z,101876.53
2019-01-18T10:14:41.160Z,101884.87
2019-01-18T10:17:11.970Z,101887.97
2019-01-18T10:19:42.503Z,101880.03
2019-01-18T10:22:12.969Z,101890.47
2019-01-18T10:24:45.768Z,101893.00
2019-01-18T10:27:16.473Z,101890.47
2019-01-18T10:29:54.467Z,101890.70
2019-01-18T10:32:24.865Z,101888.17
2019-01-18T10:34:55.506Z,101893.20
2019-01-18T10:37:30.846Z,101894.91
2019-01-18T10:39:59.965Z,101897.44
2019-01-18T10:42:30.707Z,101894.53
2019-01-18T10:45:02.514Z,101901.13
2019-01-18T10:47:34.197Z,101895.98
2019-01-18T10:50:06.191Z,101898.98
2019-01-18T10:52:39.880Z,101893.64
2019-01-18T10:55:11.693Z,101902.77
2019-01-18T10:57:42.037Z,101898.22
2019-01-18T11:00:33.021Z,101902.45
2019-01-18T11:03:18.002Z,101898.41
2019-01-18T11:05:39.094Z,101896.90
2019-01-18T11:08:09.419Z,101899.06
2019-01-18T11:10:47.865Z,101898.67
2019-01-18T11:13:20.584Z,101900.19
2019-01-18T11:15:51.068Z,101899.56
2019-01-18T11:18:40.791Z,101898.42
2019-01-18T11:21:27.282Z,101891.45
2019-01-18T11:23:57.643Z,101885.80
2019-01-18T11:26:28.139Z,101874.55
2019-01-18T11:29:20.651Z,101881.03
2019-01-18T11:31:39.468Z,101869.64
2019-01-18T11:34:09.916Z,101874.28
2019-01-18T11:36:50.776Z,101871.05
2019-01-18T11:39:24.293Z,101868.13
2019-01-18T11:41:56.565Z,101865.05
2019-01-18T11:44:27.176Z,101865.33
2019-01-18T11:47:16.631Z,101862.49
2019-01-18T11:50:05.096Z,101869.20
2019-01-18T11:52:35.592Z,101864.92
2019-01-18T11:55:06.642Z,101864.44
2019-01-18T11:57:36.978Z,101862.98
2019-01-18T12:00:15.266Z,101862.80
2019-01-18T12:02:45.568Z,101866.10
2019-01-18T12:05:17.753Z,101851.06
2019-01-18T12:07:48.638Z,101851.06
2019-01-18T12:10:21.451Z,101859.27
2019-01-18T12:12:57.234Z,101860.50
2019-01-18T12:15:28.573Z,101853.94
2019-01-18T12:17:59.188Z,101851.36
2019-01-18T12:20:41.337Z,101846.89
2019-01-18T12:23:11.925Z,101849.27
2019-01-18T12:25:42.647Z,101846.44
2019-01-18T12:28:23.717Z,101846.58
2019-01-18T12:30:54.101Z,101843.77
2019-01-18T12:33:24.614Z,101843.63
2019-01-18T12:35:55.292Z,101844.86
2019-01-18T12:38:25.806Z,101834.91
2019-01-18T12:41:14.274Z,101841.97
2019-01-18T12:43:35.650Z,101841.18
2019-01-18T12:46:06.052Z,101834.06
2019-01-18T12:48:36.528Z,101833.13
2019-01-18T12:51:06.928Z,101831.87
2019-01-18T12:53:56.331Z,101830.82
2019-01-18T12:56:44.412Z,101833.59
2019-01-18T12:59:15.019Z,101832.91
2019-01-18T13:01:45.513Z,101832.91
2019-01-18T13:04:16.216Z,101825.80
2019-01-18T13:06:48.238Z,101829.08
2019-01-18T13:09:18.965Z,101824.77
2019-01-18T13:11:49.364Z,101819.64
2019-01-18T13:14:20.185Z,101822.03
2019-01-18T13:16:50.597Z,101812.94
2019-01-18T13:19:26.048Z,101820.28
2019-01-18T13:21:56.409Z,101820.06
2019-01-18T13:24:27.217Z,101812.51
2019-01-18T13:26:57.592Z,101817.45
2019-01-18T13:29:28.231Z,101816.95
2019-01-18T13:32:00.593Z,101813.50
2019-01-18T13:34:32.186Z,101809.70
2019-01-18T13:37:02.798Z,101815.95
2019-01-18T13:39:38.267Z,101815.95
2019-01-18T13:42:08.955Z,101819.33
2019-01-18T13:44:43.745Z,101812.91
2019-01-18T13:47:18.201Z,101816.08
2019-01-18T13:49:47.134Z,101825.68
2019-01-18T13:52:17.862Z,101820.89
2019-01-18T13:54:48.648Z,101818.65
2019-01-18T13:57:19.112Z,101818.65
2019-01-18T13:59:49.763Z,101818.30
2019-01-18T14:02:20.088Z,101823.25
2019-01-18T14:04:55.407Z,101826.80
2019-01-18T14:07:26.099Z,101828.95
2019-01-18T14:10:02.296Z,101822.77
2019-01-18T14:12:33.129Z,101831.09
2019-01-18T14:15:05.595Z,101832.89
2019-01-18T14:17:37.206Z,101833.52
2019-01-18T14:20:13.031Z,101833.90
2019-01-18T14:22:43.703Z,101834.91
2019-01-18T14:25:22.402Z,101832.52
2019-01-18T14:27:51.335Z,101835.02
2019-01-18T14:30:24.870Z,101831.77
2019-01-18T14:32:59.096Z,101836.78
2019-01-18T14:35:29.533Z,101836.15
2019-01-18T14:38:00.043Z,101838.16
2019-01-18T14:40:33.897Z,101837.89
2019-01-18T14:43:06.011Z,101830.58
2019-01-18T14:45:41.013Z,101835.11
2019-01-18T14:48:11.604Z,101838.00
2019-01-18T14:50:43.454Z,101837.36
2019-01-18T14:53:13.900Z,101836.58
2019-01-18T14:55:49.823Z,101832.25
2019-01-18T14:58:24.645Z,101831.72
2019-01-18T15:00:54.686Z,101836.06
2019-01-18T15:03:44.220Z,101832.38
2019-01-18T15:06:17.154Z,101837.37
2019-01-18T15:08:50.950Z,101837.36
2019-01-18T15:11:21.312Z,101836.31
2019-01-18T15:13:51.703Z,101829.98
2019-01-18T15:16:22.167Z,101834.36
2019-01-18T15:18:52.469Z,101836.54
2019-01-18T15:21:30.686Z,101832.11
2019-01-18T15:23:57.060Z,101832.11
2019-01-18T15:26:27.384Z,101831.61
2019-01-18T15:28:57.759Z,101833.92
2019-01-18T15:31:28.126Z,101834.89
2019-01-18T15:34:03.175Z,101837.63
2019-01-18T15:36:33.543Z,101835.33
2019-01-18T15:39:11.190Z,101833.79
2019-01-18T15:41:45.240Z,101836.71
2019-01-18T15:44:15.642Z,101840.15
2019-01-18T15:46:46.265Z,101845.21
2019-01-18T15:49:21.019Z,101836.98
2019-01-18T15:51:51.364Z,101839.86
2019-01-18T15:54:21.994Z,101837.48
2019-01-18T15:57:04.295Z,101830.88
2019-01-18T15:59:34.760Z,101827.63
2019-01-18T16:02:07.333Z,101829.27
2019-01-18T16:04:48.607Z,101829.30
2019-01-18T16:07:19.165Z,101824.07
2019-01-18T16:09:52.588Z,101818.76
2019-01-18T16:12:23.134Z,101813.64
2019-01-18T16:14:53.521Z,101813.64
2019-01-18T16:17:36.015Z,101817.58
2019-01-18T16:20:11.973Z,101823.34
2019-01-18T16:22:42.655Z,101819.66
2019-01-18T16:25:21.570Z,101819.66
2019-01-18T16:27:51.939Z,101819.41
2019-01-18T16:30:22.643Z,101815.45
2019-01-18T16:32:53.778Z,101819.54
2019-01-18T16:35:24.284Z,101822.06
2019-01-18T16:37:54.851Z,101821.45
2019-01-18T16:40:28.003Z,101819.97
2019-01-18T16:43:17.124Z,101820.95
2019-01-18T16:45:49.156Z,101822.67
2019-01-18T16:48:19.454Z,101820.85
2019-01-18T16:50:50.328Z,101825.88
2019-01-18T16:53:21.016Z,101821.83
2019-01-18T16:55:54.006Z,101820.53
2019-01-18T16:58:24.402Z,101826.50
2019-01-18T17:00:56.301Z,101826.14
2019-01-18T17:03:30.561Z,101825.41
2019-01-18T17:05:58.913Z,101820.26
2019-01-18T17:08:29.366Z,101821.76
2019-01-18T17:11:02.950Z,101824.52
2019-01-18T17:13:38.189Z,101821.07
2019-01-18T17:16:08.768Z,101821.47
2019-01-18T17:18:40.986Z,101818.09
2019-01-18T17:21:11.318Z,101819.34
2019-01-18T17:23:41.950Z,101824.17
2019-01-18T17:26:19.472Z,101826.72
2019-01-18T17:28:50.158Z,101823.86
2019-01-18T17:31:20.806Z,101820.17
2019-01-18T17:33:51.460Z,101820.48
2019-01-18T17:37:07.226Z,101820.14
2019-01-18T17:40:11.272Z,101821.28
2019-01-18T17:43:17.962Z,101819.06
2019-01-18T17:46:04.905Z,101809.47
2019-01-18T17:48:58.601Z,101809.47
2019-01-18T17:51:57.752Z,101819.80
2019-01-18T17:54:46.020Z,101815.83
2019-01-18T17:57:40.530Z,101818.19
2019-01-18T18:00:49.150Z,101816.42
2019-01-18T18:04:15.909Z,101817.30
2019-01-18T18:07:10.706Z,101813.09
2019-01-18T18:10:31.424Z,101818.60
2019-01-18T18:13:59.232Z,101825.51
2019-01-18T18:16:56.753Z,101819.13
2019-01-18T18:20:13.351Z,101826.13
2019-01-18T18:23:07.323Z,101822.94
2019-01-18T18:26:06.026Z,101821.80
2019-01-18T18:29:03.567Z,101822.48
2019-01-18T18:31:50.997Z,101817.30
2019-01-18T18:35:13.682Z,101822.92
2019-01-18T18:38:10.628Z,101825.27
2019-01-18T18:41:27.899Z,101820.88
2019-01-18T18:44:22.039Z,101828.41
2019-01-18T18:47:02.305Z,101821.63
2019-01-18T18:50:18.809Z,101821.05
2019-01-18T18:53:17.557Z,101814.48
2019-01-18T18:56:36.692Z,101821.06
2019-01-18T18:59:55.452Z,101821.37
2019-01-18T19:03:08.768Z,101817.97
2019-01-18T19:06:32.252Z,101816.78
2019-01-18T19:09:45.783Z,101819.45
2019-01-18T19:12:41.772Z,101813.37
2019-01-18T19:15:58.460Z,101814.19
2019-01-18T19:19:11.569Z,101806.13
2019-01-18T19:22:08.446Z,101815.88
2019-01-18T19:25:42.089Z,101812.51
2019-01-18T19:29:08.416Z,101808.09
2019-01-18T19:32:14.321Z,101812.20
2019-01-18T19:35:19.541Z,101807.09
2019-01-18T19:38:22.611Z,101807.03
2019-01-18T19:41:19.790Z,101805.41
2019-01-18T19:44:39.349Z,101803.02
2019-01-18T19:47:30.077Z,101804.20
2019-01-18T19:50:43.879Z,101801.03
2019-01-18T19:54:02.346Z,101802.23
2019-01-18T19:56:49.997Z,101801.86
2019-01-18T19:59:57.651Z,101795.34
2019-01-18T20:02:41.124Z,101801.92
2019-01-18T20:05:35.741Z,101799.09
2019-01-18T20:08:59.494Z,101801.24
2019-01-18T20:12:04.254Z,101801.95
2019-01-18T20:14:47.571Z,101806.72
2019-01-18T20:18:03.377Z,101806.72
2019-01-18T20:21:37.681Z,101801.12
2019-01-18T20:24:36.094Z,101798.97
2019-01-18T20:27:38.103Z,101799.42
2019-01-18T20:31:08.246Z,101794.60
2019-01-18T20:34:30.679Z,101797.03
2019-01-18T20:37:24.936Z,101790.75
2019-01-18T20:40:49.302Z,101795.02
2019-01-18T20:43:58.274Z,101786.98
2019-01-18T20:47:16.841Z,101793.05
2019-01-18T20:50:12.841Z,101792.61
2019-01-18T20:53:12.267Z,101793.21
2019-01-18T20:56:29.735Z,101793.86
2019-01-18T20:59:14.416Z,101795.59
2019-01-18T21:02:43.966Z,101788.69
2019-01-18T21:05:53.561Z,101793.13
2019-01-18T21:08:40.941Z,101790.81
2019-01-18T21:11:26.494Z,101789.55
2019-01-18T21:14:12.212Z,101790.28
2019-01-18T21:17:09.100Z,101796.03
2019-01-18T21:20:09.685Z,101794.27
2019-01-18T21:23:33.714Z,101791.88
2019-01-18T21:26:36.201Z,101794.58
2019-01-18T21:29:52.416Z,101790.02
2019-01-18T21:32:44.100Z,101794.52
2019-01-18T21:36:06.855Z,101795.20
2019-01-18T21:39:14.481Z,101795.89
2019-01-18T21:42:29.460Z,101797.00
2019-01-18T21:45:36.640Z,101793.32
2019-01-18T21:49:12.939Z,101795.55
2019-01-18T21:52:03.163Z,101788.76
2019-01-18T21:54:57.413Z,101791.81
2019-01-18T21:58:02.281Z,101792.92
2019-01-18T22:01:03.657Z,101791.54
2019-01-18T22:03:53.107Z,101787.14
2019-01-18T22:06:59.167Z,101790.72
2019-01-18T22:09:41.910Z,101790.17
2019-01-18T22:12:39.463Z,101787.58
2019-01-18T22:16:11.946Z,101787.23
2019-01-18T22:19:28.616Z,101785.09
2019-01-18T22:22:30.830Z,101786.53
2019-01-18T22:25:43.375Z,101788.20
2019-01-18T22:28:43.765Z,101790.06
2019-01-18T22:31:47.041Z,101796.22
2019-01-18T22:34:47.869Z,101795.86
2019-01-18T22:38:02.527Z,101794.60
2019-01-18T22:40:56.162Z,101794.20
2019-01-18T22:43:41.299Z,101796.87
2019-01-18T22:46:52.992Z,101799.36
2019-01-18T22:49:47.559Z,101800.55
2019-01-18T22:53:17.392Z,101798.86
2019-01-18T22:56:10.840Z,101798.86
2019-01-18T22:59:20.286Z,101795.26
2019-01-18T23:02:26.421Z,101794.96
2019-01-18T23:05:42.786Z,101797.12
2019-01-18T23:08:48.630Z,101801.02
2019-01-18T23:11:35.578Z,101795.70
2019-01-18T23:14:20.161Z,101790.08
2019-01-18T23:17:27.573Z,101791.20
2019-01-18T23:20:33.410Z,101789.48
2019-01-18T23:23:44.283Z,101793.84
2019-01-18T23:27:07.227Z,101791.70
2019-01-18T23:30:15.148Z,101788.89
2019-01-18T23:33:34.253Z,101785.89
2019-01-18T23:36:52.265Z,101788.03
2019-01-18T23:40:08.493Z,101792.16
2019-01-18T23:43:04.107Z,101782.84
2019-01-18T23:46:20.118Z,101784.11
2019-01-18T23:49:20.700Z,101785.00
2019-01-18T23:52:30.131Z,101786.98
2019-01-18T23:55:36.951Z,101784.27
2019-01-18T23:58:33.611Z,101773.28
